Terminal Aerodrome Forecast
Issued by NWS Jacksonville, FL

Home | Current Version | Previous Version | Text Only | Print | Product List | Glossary On
Versions: 1 2 3 4 5 6 7 8 9 10 11 12 13 14 15 16 17 18 19 20 21 22 23 24 25 26 27 28 29 30 31 32 33 34 35 36
000
FTUS42 KJAX 041120
TAFSSI
TAF
KSSI 041120Z 0412/0512 VRB02KT P6SM SCT250
     FM041300 31005KT P6SM SCT030 BKN250
     FM041700 08007KT P6SM SCT040 BKN250
     FM042000 11009KT P6SM VCTS BKN040CB BKN250
     FM050000 14006KT P6SM VCSH SCT040 BKN250
     FM050600 13004KT P6SM FEW030 SCT250=

USA.gov is the U.S. government's official web portal to all federal, state and local government web resources and services.